Carterton, United Kingdom
Current Conditions -  °F | °C
As of 6:50 AM on Monday 24 Nov 2014 (Local Time) from EGVN Reporting Station
Light Fog Light Fog  
Wind Chill: 32°   Ceiling: Unl
Heat Index: 32°   Visibility: 6mi
Dew Point: 30°   Wind: 3mph
Humidity: 93%   Direction: 270°W
Pressure: 30.27"   Gusts: NA
Location:  51.76°N, 1.59°W
Report Text: EGVN 240650Z 27003KT 9999 4000SW MIFG FEW140 M00/M01 Q1025 TEMPO 2000
Loading
Personal Weather Stations






























Interactive Weather Map New forecast layout! Learn more

10-Day Weather Forecast

Advertisements
Track Severe Weather on mobile